Time;durP1;ratioP1;P1;durP2;ratioP2;P2;SDS_P1;SDS_P2;PMS_P1;PMS_P2;Temp;Humidity;BMP_temperature;BMP_pressure;BME280_temperature;BME280_humidity;BME280_pressure;Samples;Min_cycle;Max_cycle;Signal;HPM_P1;HPM_P2
2023/07/13 00:01:08;;;;;;;5.28;2.08;;;;;;;;;;6323370;28;20090;-79
2023/07/13 00:04:10;;;;;;;5.80;2.55;;;;;;;;;;6321165;28;20115;-80
2023/07/13 00:07:14;;;;;;;6.60;1.98;;;;;;;;;;6321506;28;20044;-79
2023/07/13 00:10:20;;;;;;;4.10;2.08;;;;;;;;;;6322994;28;20367;-80
2023/07/13 00:13:22;;;;;;;3.90;2.00;;;;;;;;;;6326382;28;20063;-80
2023/07/13 00:16:23;;;;;;;5.00;2.10;;;;;;;;;;6327760;28;20060;-81
2023/07/13 00:19:25;;;;;;;5.80;2.22;;;;;;;;;;6327709;28;20055;-80
2023/07/13 00:22:29;;;;;;;3.40;1.95;;;;;;;;;;6326847;28;20340;-84
2023/07/13 00:25:33;;;;;;;4.95;1.92;;;;;;;;;;6325591;28;20504;-85
2023/07/13 00:28:34;;;;;;;;;;;;;;;;;;6326065;28;20752;-83
2023/07/13 00:31:36;;;;;;;4.18;1.67;;;;;;;;;;6324747;28;19967;-85
2023/07/13 00:34:37;;;;;;;4.85;1.98;;;;;;;;;;6324034;28;20275;-87
2023/07/13 00:37:41;;;;;;;5.78;2.10;;;;;;;;;;6324312;28;20052;-85
2023/07/13 00:40:42;;;;;;;;;;;;;;;;;;6327499;28;20277;-86
2023/07/13 00:43:45;;;;;;;5.57;2.53;;;;;;;;;;6311631;28;19916;-84
2023/07/13 00:46:47;;;;;;;2.80;1.65;;;;;;;;;;6326019;28;20117;-83
2023/07/13 00:49:49;;;;;;;7.00;2.47;;;;;;;;;;6326167;28;20056;-86
2023/07/13 00:52:53;;;;;;;5.53;2.15;;;;;;;;;;6324418;28;20040;-85
2023/07/13 00:55:56;;;;;;;5.53;2.42;;;;;;;;;;6323361;28;20344;-85
2023/07/13 00:59:03;;;;;;;4.18;1.90;;;;;;;;;;6325937;28;20240;-85
2023/07/13 01:02:04;;;;;;;4.20;1.65;;;;;;;;;;6323953;28;20348;-83
2023/07/13 01:05:10;;;;;;;4.90;1.98;;;;;;;;;;6324172;28;20063;-84
2023/07/13 01:08:13;;;;;;;4.03;2.30;;;;;;;;;;6322874;28;20225;-81
2023/07/13 01:11:14;;;;;;;;;;;;;;;;;;6324884;28;20052;-86
2023/07/13 01:14:19;;;;;;;7.40;2.58;;;;;;;;;;6328214;28;19924;-86
2023/07/13 01:17:20;;;;;;;3.97;1.90;;;;;;;;;;6326213;28;20059;-85
2023/07/13 01:20:22;;;;;;;3.90;2.10;;;;;;;;;;6322871;28;20075;-85
2023/07/13 01:23:26;;;;;;;5.07;1.65;;;;;;;;;;6330803;28;20054;-83
2023/07/13 01:26:28;;;;;;;4.28;2.10;;;;;;;;;;6325989;28;20139;-85
2023/07/13 01:29:29;;;;;;;4.70;2.40;;;;;;;;;;6328528;28;20052;-84
2023/07/13 01:32:34;;;;;;;3.45;2.10;;;;;;;;;;6325538;28;20296;-81
2023/07/13 01:35:36;;;;;;;4.72;1.90;;;;;;;;;;6320161;28;20056;-83
2023/07/13 01:38:39;;;;;;;5.25;2.40;;;;;;;;;;6326924;28;20054;-86
2023/07/13 01:41:43;;;;;;;6.00;2.63;;;;;;;;;;6323843;28;20079;-84
2023/07/13 01:44:46;;;;;;;3.95;2.38;;;;;;;;;;6328794;28;20109;-84
2023/07/13 01:47:47;;;;;;;4.57;2.58;;;;;;;;;;6289043;28;20072;-85
2023/07/13 01:50:49;;;;;;;5.97;2.65;;;;;;;;;;6325627;28;20052;-84
2023/07/13 01:53:52;;;;;;;7.13;2.60;;;;;;;;;;6327726;28;20056;-86
2023/07/13 01:56:54;;;;;;;8.05;3.08;;;;;;;;;;6324842;28;20048;-84
2023/07/13 01:59:55;;;;;;;5.90;2.65;;;;;;;;;;6324268;28;20075;-85
2023/07/13 02:02:57;;;;;;;6.57;2.60;;;;;;;;;;6325291;28;20051;-85
2023/07/13 02:05:58;;;;;;;8.77;3.15;;;;;;;;;;6324952;28;20853;-86
2023/07/13 02:09:09;;;;;;;7.22;2.72;;;;;;;;;;6326166;28;20306;-84
2023/07/13 02:12:10;;;;;;;4.88;2.70;;;;;;;;;;6328471;28;20044;-84
2023/07/13 02:15:12;;;;;;;5.80;3.33;;;;;;;;;;6344102;28;20059;-83
2023/07/13 02:18:16;;;;;;;5.50;2.90;;;;;;;;;;6344307;28;20100;-85
2023/07/13 02:21:18;;;;;;;9.88;3.10;;;;;;;;;;6347122;28;20081;-84
2023/07/13 02:24:21;;;;;;;6.47;2.90;;;;;;;;;;6347650;28;20059;-84
2023/07/13 02:27:23;;;;;;;5.15;2.72;;;;;;;;;;6342557;28;20056;-85
2023/07/13 02:30:25;;;;;;;7.65;3.10;;;;;;;;;;6347187;28;20050;-83
2023/07/13 02:33:26;;;;;;;7.13;3.13;;;;;;;;;;6348852;28;20136;-87
2023/07/13 02:36:28;;;;;;;6.70;3.20;;;;;;;;;;6345709;28;20051;-85
2023/07/13 02:39:32;;;;;;;3.95;2.45;;;;;;;;;;6347409;28;20073;-85
2023/07/13 02:42:34;;;;;;;6.07;2.70;;;;;;;;;;6340892;28;20044;-86
2023/07/13 02:45:35;;;;;;;5.10;2.95;;;;;;;;;;6324482;28;20048;-86
2023/07/13 02:48:38;;;;;;;7.10;2.90;;;;;;;;;;6329601;28;20231;-86
2023/07/13 02:51:39;;;;;;;3.78;2.05;;;;;;;;;;6324616;28;20337;-85
2023/07/13 02:54:42;;;;;;;5.18;2.30;;;;;;;;;;6323105;28;20282;-85
2023/07/13 02:57:44;;;;;;;5.50;2.13;;;;;;;;;;6324395;28;20363;-86
2023/07/13 03:00:46;;;;;;;4.20;2.33;;;;;;;;;;6325563;28;20233;-86
2023/07/13 03:03:48;;;;;;;5.78;2.60;;;;;;;;;;6323640;28;20337;-86
2023/07/13 03:06:49;;;;;;;4.85;2.55;;;;;;;;;;6323062;28;20244;-86
2023/07/13 03:09:56;;;;;;;6.28;2.80;;;;;;;;;;6324937;28;20058;-85
2023/07/13 03:12:57;;;;;;;7.22;2.90;;;;;;;;;;6323942;28;20242;-83
2023/07/13 03:15:59;;;;;;;4.57;2.40;;;;;;;;;;6323974;28;20068;-85
2023/07/13 03:19:00;;;;;;;5.43;2.50;;;;;;;;;;6324227;28;20071;-86
2023/07/13 03:22:02;;;;;;;9.90;2.80;;;;;;;;;;6324672;28;20097;-83
2023/07/13 03:25:06;;;;;;;6.30;2.90;;;;;;;;;;6324381;28;20071;-85
2023/07/13 03:28:07;;;;;;;5.75;3.10;;;;;;;;;;6325573;28;20051;-85
2023/07/13 03:31:10;;;;;;;5.93;3.13;;;;;;;;;;6327176;28;20209;-86
2023/07/13 03:34:12;;;;;;;7.88;3.05;;;;;;;;;;6323058;28;20328;-85
2023/07/13 03:37:13;;;;;;;7.07;2.80;;;;;;;;;;6323487;28;20460;-85
2023/07/13 03:40:17;;;;;;;6.50;3.25;;;;;;;;;;6322936;28;20047;-86
2023/07/13 03:43:20;;;;;;;7.40;3.53;;;;;;;;;;6322201;28;20431;-84
2023/07/13 03:46:21;;;;;;;5.55;3.53;;;;;;;;;;6323122;28;20302;-86
2023/07/13 03:49:23;;;;;;;5.68;3.50;;;;;;;;;;6326795;28;20070;-85
2023/07/13 03:52:24;;;;;;;11.02;3.80;;;;;;;;;;6325911;28;20052;-86
2023/07/13 03:55:27;;;;;;;9.38;3.63;;;;;;;;;;6326288;28;20229;-86
2023/07/13 03:58:31;;;;;;;6.88;3.53;;;;;;;;;;6327407;28;20104;-85
2023/07/13 04:01:33;;;;;;;6.32;3.80;;;;;;;;;;6325712;28;20076;-85
2023/07/13 04:04:34;;;;;;;7.40;3.70;;;;;;;;;;6324755;28;20048;-83
2023/07/13 04:07:36;;;;;;;5.25;3.75;;;;;;;;;;6325664;28;20052;-84
2023/07/13 04:10:40;;;;;;;6.63;4.13;;;;;;;;;;6327798;28;20070;-86
2023/07/13 04:13:41;;;;;;;5.90;3.40;;;;;;;;;;6327274;28;20048;-84
2023/07/13 04:16:43;;;;;;;7.78;3.75;;;;;;;;;;6328597;28;20055;-84
2023/07/13 04:19:45;;;;;;;7.13;4.07;;;;;;;;;;6328347;28;20048;-85
2023/07/13 04:22:46;;;;;;;7.28;3.83;;;;;;;;;;6329160;28;20079;-84
2023/07/13 04:25:52;;;;;;;11.70;4.20;;;;;;;;;;6326656;28;20111;-83
2023/07/13 04:28:54;;;;;;;6.55;3.45;;;;;;;;;;6329383;28;20063;-86
2023/07/13 04:31:55;;;;;;;8.30;3.58;;;;;;;;;;6327247;28;20053;-85
2023/07/13 04:34:59;;;;;;;8.15;3.70;;;;;;;;;;6327540;28;20044;-85
2023/07/13 04:41:26;;;;;;;9.30;3.40;;;;;;;;;;6313043;28;20116;-83
2023/07/13 04:44:27;;;;;;;8.23;3.78;;;;;;;;;;6328816;28;20225;-85
2023/07/13 04:47:31;;;;;;;8.18;3.97;;;;;;;;;;6327080;28;20048;-84
2023/07/13 04:50:32;;;;;;;;;;;;;;;;;;6326377;28;20062;-82
2023/07/13 04:53:34;;;;;;;8.35;4.13;;;;;;;;;;6325942;28;19924;-83
2023/07/13 04:56:37;;;;;;;8.60;4.15;;;;;;;;;;6324767;28;20052;-82
2023/07/13 04:59:39;;;;;;;6.82;3.20;;;;;;;;;;6325602;28;20063;-83
2023/07/13 05:02:40;;;;;;;7.30;3.30;;;;;;;;;;6326608;28;20344;-83
2023/07/13 05:05:42;;;;;;;6.03;3.33;;;;;;;;;;6327620;28;20054;-84
2023/07/13 05:08:43;;;;;;;7.47;3.28;;;;;;;;;;6324964;28;20048;-83
2023/07/13 05:11:46;;;;;;;7.13;3.42;;;;;;;;;;6326752;28;20059;-83
2023/07/13 05:14:49;;;;;;;4.90;3.10;;;;;;;;;;6327741;28;20056;-84
2023/07/13 05:17:50;;;;;;;8.75;3.55;;;;;;;;;;6326904;28;20062;-85
2023/07/13 05:20:59;;;;;;;5.47;3.10;;;;;;;;;;6326530;28;20044;-83
2023/07/13 05:24:00;;;;;;;6.47;3.40;;;;;;;;;;6323610;28;20060;-79
2023/07/13 05:27:03;;;;;;;7.97;3.47;;;;;;;;;;6326977;28;20055;-81
2023/07/13 05:30:05;;;;;;;6.43;3.10;;;;;;;;;;6326271;28;20040;-80
2023/07/13 05:33:07;;;;;;;9.75;3.00;;;;;;;;;;6326284;28;20063;-80
2023/07/13 05:36:16;;;;;;;7.10;2.70;;;;;;;;;;6325075;28;20062;-80
2023/07/13 05:39:17;;;;;;;4.88;2.70;;;;;;;;;;6326259;28;20740;-80
2023/07/13 05:42:20;;;;;;;5.85;2.90;;;;;;;;;;6325406;28;20324;-81
2023/07/13 05:45:22;;;;;;;7.30;2.78;;;;;;;;;;6324784;28;20243;-80
2023/07/13 05:48:23;;;;;;;6.85;2.40;;;;;;;;;;6324648;28;20040;-81
2023/07/13 05:51:25;;;;;;;4.53;1.90;;;;;;;;;;6326530;28;20056;-81
2023/07/13 05:54:27;;;;;;;6.88;1.85;;;;;;;;;;6320826;28;20048;-81
2023/07/13 05:57:31;;;;;;;3.57;1.37;;;;;;;;;;6324800;28;20385;-81
2023/07/13 06:00:32;;;;;;;;;;;;;;;;;;6326426;28;20705;-81
2023/07/13 06:03:33;;;;;;;;;;;;;;;;;;6326915;28;19924;-81
2023/07/13 06:06:34;;;;;;;;;;;;;;;;;;6325169;28;20105;-81
2023/07/13 06:09:38;;;;;;;;;;;;;;;;;;6325581;28;19916;-81
2023/07/13 06:12:39;;;;;;;;;;;;;;;;;;6324795;28;20216;-81
2023/07/13 06:15:40;;;;;;;;;;;;;;;;;;6326715;28;19931;-81
2023/07/13 06:18:42;;;;;;;;;;;;;;;;;;6325862;28;19931;-81
2023/07/13 06:21:43;;;;;;;;;;;;;;;;;;6325750;28;19931;-81
2023/07/13 06:24:44;;;;;;;;;;;;;;;;;;6324700;28;19916;-81
2023/07/13 06:27:45;;;;;;;;;;;;;;;;;;6325699;28;19916;-81
2023/07/13 06:30:47;;;;;;;;;;;;;;;;;;6326352;28;19923;-81
2023/07/13 06:33:48;;;;;;;;;;;;;;;;;;6325427;28;19932;-82
2023/07/13 06:36:49;;;;;;;;;;;;;;;;;;6326739;28;19924;-81
2023/07/13 06:39:51;;;;;;;;;;;;;;;;;;6324442;28;20097;-81
2023/07/13 06:42:52;;;;;;;;;;;;;;;;;;6323981;28;20120;-82
2023/07/13 06:45:53;;;;;;;;;;;;;;;;;;6326568;28;20223;-81
2023/07/13 06:48:54;;;;;;;;;;;;;;;;;;6325134;28;19923;-81
2023/07/13 06:51:56;;;;;;;;;;;;;;;;;;6324696;28;20100;-81
2023/07/13 06:54:57;;;;;;;;;;;;;;;;;;6325068;28;19924;-81
2023/07/13 06:57:58;;;;;;;;;;;;;;;;;;6323014;28;20148;-81
2023/07/13 07:00:59;;;;;;;;;;;;;;;;;;6327336;28;19916;-81
2023/07/13 07:04:01;;;;;;;;;;;;;;;;;;6324896;28;19916;-81
2023/07/13 07:07:02;;;;;;;;;;;;;;;;;;6324670;28;19923;-81
2023/07/13 07:10:04;;;;;;;;;;;;;;;;;;6324440;28;19924;-81
2023/07/13 07:13:05;;;;;;;;;;;;;;;;;;6325943;28;20019;-81
2023/07/13 07:16:06;;;;;;;;;;;;;;;;;;6326399;28;19930;-81
2023/07/13 07:19:07;;;;;;;;;;;;;;;;;;6324932;28;19983;-81
2023/07/13 07:22:09;;;;;;;;;;;;;;;;;;6326801;28;20085;-81
2023/07/13 07:25:10;;;;;;;;;;;;;;;;;;6331169;28;20000;-81
2023/07/13 07:28:12;;;;;;;;;;;;;;;;;;6331299;28;19974;-81
2023/07/13 07:31:13;;;;;;;;;;;;;;;;;;6329954;28;19928;-81
2023/07/13 07:34:14;;;;;;;;;;;;;;;;;;6329645;28;19916;-81
2023/07/13 07:37:16;;;;;;;;;;;;;;;;;;6330095;28;19930;-82
2023/07/13 07:40:17;;;;;;;;;;;;;;;;;;6329452;28;19916;-83
2023/07/13 07:43:20;;;;;;;;;;;;;;;;;;6328347;28;20261;-82
2023/07/13 07:46:22;;;;;;;;;;;;;;;;;;6330917;28;19991;-83
2023/07/13 07:49:25;;;;;;;;;;;;;;;;;;6329369;28;19939;-84
2023/07/13 07:52:28;;;;;;;;;;;;;;;;;;6328975;28;19996;-83
2023/07/13 07:55:29;;;;;;;;;;;;;;;;;;6330569;28;19916;-83
2023/07/13 07:58:31;;;;;;;;;;;;;;;;;;6328585;28;19981;-83
2023/07/13 08:01:32;;;;;;;;;;;;;;;;;;6329774;28;19923;-82
2023/07/13 08:04:34;;;;;;;;;;;;;;;;;;6327982;28;19925;-82
2023/07/13 08:07:35;;;;;;;;;;;;;;;;;;6328736;28;19966;-82
2023/07/13 08:10:36;;;;;;;;;;;;;;;;;;6329031;28;19924;-82
2023/07/13 08:13:37;;;;;;;;;;;;;;;;;;6330685;28;19963;-82
2023/07/13 08:16:39;;;;;;;;;;;;;;;;;;6327900;28;20303;-83
2023/07/13 08:19:40;;;;;;;;;;;;;;;;;;6328860;28;19959;-83
2023/07/13 08:22:41;;;;;;;;;;;;;;;;;;6328345;28;19924;-83
2023/07/13 08:25:43;;;;;;;;;;;;;;;;;;6329040;28;19931;-83
2023/07/13 08:28:44;;;;;;;;;;;;;;;;;;6328990;28;19916;-83
2023/07/13 08:31:45;;;;;;;;;;;;;;;;;;6324592;28;20231;-82
2023/07/13 08:34:47;;;;;;;;;;;;;;;;;;6328798;28;20151;-82
2023/07/13 08:37:48;;;;;;;;;;;;;;;;;;6328244;28;19923;-83
2023/07/13 08:40:49;;;;;;;;;;;;;;;;;;6328038;28;19920;-83
2023/07/13 08:43:50;;;;;;;;;;;;;;;;;;6326829;28;19965;-81
2023/07/13 08:46:52;;;;;;;;;;;;;;;;;;6330377;28;19928;-81
2023/07/13 08:49:53;;;;;;;;;;;;;;;;;;6326705;28;19920;-82
2023/07/13 08:52:54;;;;;;;;;;;;;;;;;;6328798;28;19916;-82
2023/07/13 08:55:56;;;;;;;;;;;;;;;;;;6327174;28;20077;-82
2023/07/13 08:58:57;;;;;;;;;;;;;;;;;;6317340;28;19966;-82
2023/07/13 09:01:58;;;;;;;;;;;;;;;;;;6304814;28;20412;-82
2023/07/13 09:04:59;;;;;;;;;;;;;;;;;;6303359;28;19932;-82
2023/07/13 09:08:00;;;;;;;;;;;;;;;;;;6303691;28;19916;-82
2023/07/13 09:11:02;;;;;;;;;;;;;;;;;;6304021;28;19928;-82
2023/07/13 09:14:03;;;;;;;;;;;;;;;;;;6302706;28;19916;-82
2023/07/13 09:17:07;;;;;;;;;;;;;;;;;;6303448;28;19978;-82
2023/07/13 09:20:08;;;;;;;;;;;;;;;;;;6303566;28;20116;-82
2023/07/13 09:23:09;;;;;;;;;;;;;;;;;;6302571;28;20085;-81
2023/07/13 09:26:11;;;;;;;;;;;;;;;;;;6302444;28;20023;-81
2023/07/13 09:29:12;;;;;;;;;;;;;;;;;;6304625;28;19924;-82
2023/07/13 09:32:13;;;;;;;;;;;;;;;;;;6303040;28;20091;-81
2023/07/13 09:35:15;;;;;;;;;;;;;;;;;;6302483;28;20026;-81
2023/07/13 09:38:16;;;;;;;;;;;;;;;;;;6301634;28;19931;-82
2023/07/13 09:41:18;;;;;;;;;;;;;;;;;;6302824;28;19916;-83
2023/07/13 09:44:19;;;;;;;;;;;;;;;;;;6301505;28;20583;-82
2023/07/13 09:47:23;;;;;;;;;;;;;;;;;;6304684;28;20016;-83
2023/07/13 09:50:24;;;;;;;;;;;;;;;;;;6301843;28;19938;-82
2023/07/13 09:53:25;;;;;;;;;;;;;;;;;;6303097;28;19920;-81
2023/07/13 09:56:26;;;;;;;;;;;;;;;;;;6301934;28;20223;-81
2023/07/13 09:59:28;;;;;;;;;;;;;;;;;;6316731;28;19931;-81
2023/07/13 10:02:29;;;;;;;;;;;;;;;;;;6327601;28;20100;-82
2023/07/13 10:05:32;;;;;;;;;;;;;;;;;;6327055;28;19924;-82
2023/07/13 10:08:34;;;;;;;;;;;;;;;;;;6326175;28;20112;-82
2023/07/13 10:11:35;;;;;;;;;;;;;;;;;;6326162;28;19920;-82
2023/07/13 10:14:36;;;;;;;;;;;;;;;;;;6325013;28;20167;-82
2023/07/13 10:17:37;;;;;;;;;;;;;;;;;;6326923;28;19922;-82
2023/07/13 10:20:41;;;;;;;;;;;;;;;;;;6327169;28;19955;-81
2023/07/13 10:23:43;;;;;;;;;;;;;;;;;;6324871;28;20209;-82
2023/07/13 10:26:44;;;;;;;;;;;;;;;;;;6325263;28;19916;-81
2023/07/13 10:29:46;;;;;;;;;;;;;;;;;;6327494;28;20200;-81
2023/07/13 10:32:47;;;;;;;;;;;;;;;;;;6325799;28;19923;-81
2023/07/13 10:35:48;;;;;;;;;;;;;;;;;;6325011;28;19916;-81
2023/07/13 10:38:49;;;;;;;;;;;;;;;;;;6327405;28;20132;-81
2023/07/13 10:41:51;;;;;;;;;;;;;;;;;;6325393;28;19927;-81
2023/07/13 10:44:52;;;;;;;;;;;;;;;;;;6327894;28;19934;-81
2023/07/13 10:47:55;;;;;;;;;;;;;;;;;;6324689;28;20200;-80
2023/07/13 10:50:57;;;;;;;;;;;;;;;;;;6325541;28;19978;-81
2023/07/13 10:53:59;;;;;;;;;;;;;;;;;;6325282;28;20085;-81
2023/07/13 10:57:01;;;;;;;;;;;;;;;;;;6323541;28;20267;-81
2023/07/13 11:00:02;;;;;;;;;;;;;;;;;;6323583;28;20228;-81
2023/07/13 11:03:03;;;;;;;;;;;;;;;;;;6325996;28;19923;-81
2023/07/13 11:06:05;;;;;;;;;;;;;;;;;;6323897;28;20282;-81
2023/07/13 11:09:06;;;;;;;;;;;;;;;;;;6324410;28;19936;-81
2023/07/13 11:12:08;;;;;;;;;;;;;;;;;;6323788;28;20475;-81
2023/07/13 11:15:10;;;;;;;;;;;;;;;;;;6324562;28;19935;-81
2023/07/13 11:18:11;;;;;;;;;;;;;;;;;;6324711;28;19928;-81
2023/07/13 11:21:12;;;;;;;;;;;;;;;;;;6326363;28;19923;-81
2023/07/13 11:24:13;;;;;;;;;;;;;;;;;;6324284;28;20212;-81
2023/07/13 11:27:15;;;;;;;;;;;;;;;;;;6325937;28;19923;-81
2023/07/13 11:30:16;;;;;;;;;;;;;;;;;;6324749;28;19924;-81
2023/07/13 11:33:17;;;;;;;;;;;;;;;;;;6324332;28;19916;-81
2023/07/13 11:36:21;;;;;;;;;;;;;;;;;;6324418;28;19923;-82
2023/07/13 11:39:22;;;;;;;;;;;;;;;;;;6327515;28;20147;-85
2023/07/13 11:42:24;;;;;;;;;;;;;;;;;;6326383;28;19935;-84
2023/07/13 11:45:25;;;;;;;;;;;;;;;;;;6328412;28;19931;-86
2023/07/13 11:48:27;;;;;;;;;;;;;;;;;;6327779;28;19923;-85
2023/07/13 11:51:28;;;;;;;;;;;;;;;;;;6327023;28;19923;-87
2023/07/13 11:54:29;;;;;;;;;;;;;;;;;;6308842;28;20262;-85
2023/07/13 11:57:33;;;;;;;;;;;;;;;;;;6326192;28;19939;-85
2023/07/13 12:00:38;;;;;;;;;;;;;;;;;;6303777;28;20096;-82
2023/07/13 12:03:39;;;;;;;;;;;;;;;;;;6300959;28;20189;-82
2023/07/13 12:06:43;;;;;;;;;;;;;;;;;;6302156;28;19924;-84
2023/07/13 12:09:44;;;;;;;;;;;;;;;;;;6306653;28;19947;-82
2023/07/13 12:12:45;;;;;;;;;;;;;;;;;;6304813;28;19932;-82
2023/07/13 12:15:48;;;;;;;;;;;;;;;;;;6304845;28;19924;-80
2023/07/13 12:18:49;;;;;;;;;;;;;;;;;;6303149;28;19920;-81
2023/07/13 12:21:51;;;;;;;;;;;;;;;;;;6304245;28;20034;-80
2023/07/13 12:24:52;;;;;;;;;;;;;;;;;;6305046;28;19935;-80
2023/07/13 12:27:53;;;;;;;;;;;;;;;;;;6304713;28;19924;-80
2023/07/13 12:30:54;;;;;;;;;;;;;;;;;;6304816;28;19916;-79
2023/07/13 12:33:56;;;;;;;;;;;;;;;;;;6303406;28;20196;-80
2023/07/13 12:36:58;;;;;;;;;;;;;;;;;;6304497;28;19916;-80
2023/07/13 12:39:59;;;;;;;;;;;;;;;;;;6304913;28;19932;-80
2023/07/13 12:43:04;;;;;;;;;;;;;;;;;;6304884;28;19924;-80
2023/07/13 12:46:05;;;;;;;;;;;;;;;;;;6303546;28;19987;-80
2023/07/13 12:49:07;;;;;;;;;;;;;;;;;;6298929;28;20232;-80
2023/07/13 12:52:08;;;;;;;;;;;;;;;;;;6304315;28;19916;-79
2023/07/13 12:55:14;;;;;;;;;;;;;;;;;;6304359;28;19924;-83
2023/07/13 12:58:15;;;;;;;;;;;;;;;;;;6307469;28;19955;-82
2023/07/13 13:01:16;;;;;;;;;;;;;;;;;;6328372;28;20226;-81
2023/07/13 13:04:21;;;;;;;;;;;;;;;;;;6327703;28;19934;-81
2023/07/13 13:07:22;;;;;;;;;;;;;;;;;;6329111;28;19923;-80
2023/07/13 13:10:23;;;;;;;;;;;;;;;;;;6325939;28;19924;-82
2023/07/13 13:13:25;;;;;;;;;;;;;;;;;;6328304;28;20939;-81
2023/07/13 13:16:26;;;;;;;;;;;;;;;;;;6327279;28;19947;-81
2023/07/13 13:19:27;;;;;;;;;;;;;;;;;;6327171;28;19916;-81
2023/07/13 13:22:29;;;;;;;;;;;;;;;;;;6326736;28;19924;-81
2023/07/13 13:25:30;;;;;;;;;;;;;;;;;;6327740;28;19924;-81
2023/07/13 13:28:32;;;;;;;;;;;;;;;;;;6328305;28;19924;-81
2023/07/13 13:31:34;;;;;;;;;;;;;;;;;;6328799;28;19931;-81
2023/07/13 13:34:35;;;;;;;;;;;;;;;;;;6327106;28;19969;-80
2023/07/13 13:37:37;;;;;;;;;;;;;;;;;;6327169;28;19916;-82
2023/07/13 13:40:38;;;;;;;;;;;;;;;;;;6327360;28;19916;-82
2023/07/13 13:43:39;;;;;;;;;;;;;;;;;;6326659;28;19957;-80
2023/07/13 13:46:40;;;;;;;;;;;;;;;;;;6328940;28;19932;-81
2023/07/13 13:49:42;;;;;;;;;;;;;;;;;;6321400;28;19915;-81
2023/07/13 13:52:43;;;;;;;;;;;;;;;;;;6327633;28;19962;-81
2023/07/13 13:55:45;;;;;;;;;;;;;;;;;;6326677;28;19920;-80
2023/07/13 13:58:46;;;;;;;;;;;;;;;;;;6323919;28;19924;-80
2023/07/13 14:01:48;;;;;;;;;;;;;;;;;;6328271;28;19955;-80
2023/07/13 14:04:49;;;;;;;;;;;;;;;;;;6326824;28;20263;-82
2023/07/13 14:07:52;;;;;;;;;;;;;;;;;;6319668;28;20100;-80
2023/07/13 14:10:53;;;;;;;;;;;;;;;;;;6326657;28;19915;-80
2023/07/13 14:13:55;;;;;;;;;;;;;;;;;;6324676;28;19930;-81
2023/07/13 14:16:57;;;;;;;;;;;;;;;;;;6324782;28;19925;-83
2023/07/13 14:19:58;;;;;;;;;;;;;;;;;;6327799;28;20025;-83
2023/07/13 14:22:59;;;;;;;;;;;;;;;;;;6325189;28;20046;-81
2023/07/13 14:26:01;;;;;;;;;;;;;;;;;;6327773;28;19924;-80
2023/07/13 14:29:02;;;;;;;;;;;;;;;;;;6325566;28;19957;-80
2023/07/13 14:32:04;;;;;;;;;;;;;;;;;;6323700;28;20128;-81
2023/07/13 14:35:06;;;;;;;;;;;;;;;;;;6325459;28;19923;-79
2023/07/13 14:38:07;;;;;;;;;;;;;;;;;;6325157;28;19946;-81
2023/07/13 14:41:08;;;;;;;;;;;;;;;;;;6327155;28;19993;-81
2023/07/13 14:44:10;;;;;;;;;;;;;;;;;;6326310;28;19916;-80
2023/07/13 14:47:11;;;;;;;;;;;;;;;;;;6325186;28;20219;-79
2023/07/13 14:50:13;;;;;;;;;;;;;;;;;;6325316;28;19916;-81
2023/07/13 14:53:14;;;;;;;;;;;;;;;;;;6324813;28;19959;-81
2023/07/13 14:56:17;;;;;;;;;;;;;;;;;;6326324;28;19962;-80
2023/07/13 14:59:18;;;;;;;;;;;;;;;;;;6325034;28;20212;-81
2023/07/13 15:02:20;;;;;;;;;;;;;;;;;;6325586;28;19924;-81
2023/07/13 15:05:22;;;;;;;;;;;;;;;;;;6325560;28;20023;-80
2023/07/13 15:08:24;;;;;;;;;;;;;;;;;;6324420;28;19925;-80
2023/07/13 15:11:25;;;;;;;;;;;;;;;;;;6324511;28;19916;-79
2023/07/13 15:14:27;;;;;;;;;;;;;;;;;;6323934;28;19915;-81
2023/07/13 15:17:28;;;;;;;;;;;;;;;;;;6326240;28;19924;-80
2023/07/13 15:20:29;;;;;;;;;;;;;;;;;;6324670;28;20305;-79
2023/07/13 15:23:30;;;;;;;;;;;;;;;;;;6325240;28;19923;-80
2023/07/13 15:26:32;;;;;;;;;;;;;;;;;;6327129;28;19916;-80
2023/07/13 15:29:33;;;;;;;;;;;;;;;;;;6325892;28;19924;-80
2023/07/13 15:32:34;;;;;;;;;;;;;;;;;;6322417;28;19923;-80
2023/07/13 15:35:36;;;;;;;;;;;;;;;;;;6324482;28;19924;-80
2023/07/13 15:38:38;;;;;;;;;;;;;;;;;;6324094;28;20043;-82
2023/07/13 15:41:41;;;;;;;;;;;;;;;;;;6325843;28;20002;-80
2023/07/13 15:44:42;;;;;;;;;;;;;;;;;;6330115;28;20236;-80
2023/07/13 15:47:44;;;;;;;;;;;;;;;;;;6311631;28;19947;-81
2023/07/13 15:50:45;;;;;;;;;;;;;;;;;;6329332;28;19924;-82
2023/07/13 15:53:48;;;;;;;;;;;;;;;;;;6311308;28;19988;-84
2023/07/13 15:56:49;;;;;;;;;;;;;;;;;;6326372;28;20130;-83
2023/07/13 15:59:50;;;;;;;;;;;;;;;;;;6328337;28;20422;-80
2023/07/13 16:02:51;;;;;;;;;;;;;;;;;;6330567;28;19938;-81
2023/07/13 16:05:53;;;;;;;;;;;;;;;;;;6328582;28;19916;-82
2023/07/13 16:08:54;;;;;;;;;;;;;;;;;;6326708;28;19930;-80
2023/07/13 16:11:57;;;;;;;;;;;;;;;;;;6329811;28;19931;-80
2023/07/13 16:14:59;;;;;;;;;;;;;;;;;;6327957;28;19916;-80
2023/07/13 16:18:00;;;;;;;;;;;;;;;;;;6328259;28;20057;-80
2023/07/13 16:21:02;;;;;;;;;;;;;;;;;;6317869;28;19924;-80
2023/07/13 16:24:03;;;;;;;;;;;;;;;;;;6327478;28;19916;-81
2023/07/13 16:27:06;;;;;;;;;;;;;;;;;;6329686;28;20100;-80
2023/07/13 16:30:07;;;;;;;;;;;;;;;;;;6328699;28;19931;-81
2023/07/13 16:33:09;;;;;;;;;;;;;;;;;;6328637;28;19928;-81
2023/07/13 16:36:10;;;;;;;;;;;;;;;;;;6328427;28;19931;-81
2023/07/13 16:39:11;;;;;;;;;;;;;;;;;;6329818;28;19927;-80
2023/07/13 16:42:13;;;;;;;;;;;;;;;;;;6327878;28;19928;-80
2023/07/13 16:45:15;;;;;;;;;;;;;;;;;;6329059;28;19935;-81
2023/07/13 16:48:16;;;;;;;;;;;;;;;;;;6326216;28;20879;-81
2023/07/13 16:51:17;;;;;;;;;;;;;;;;;;6328438;28;20027;-79
2023/07/13 16:54:19;;;;;;;;;;;;;;;;;;6326659;28;19992;-80
2023/07/13 16:57:20;;;;;;;;;;;;;;;;;;6327996;28;19935;-80
2023/07/13 17:00:23;;;;;;;;;;;;;;;;;;6328213;28;19931;-79
2023/07/13 17:03:26;;;;;;;;;;;;;;;;;;6327870;28;20147;-81
2023/07/13 17:06:27;;;;;;;;;;;;;;;;;;6327109;28;19916;-80
2023/07/13 17:09:30;;;;;;;;;;;;;;;;;;6328645;28;19999;-80
2023/07/13 17:12:32;;;;;;;;;;;;;;;;;;6327491;28;19947;-81
2023/07/13 17:15:37;;;;;;;;;;;;;;;;;;6326799;28;20150;-80
2023/07/13 17:18:38;;;;;;;;;;;;;;;;;;6325549;28;19923;-80
2023/07/13 17:21:40;;;;;;;;;;;;;;;;;;6310243;28;19927;-80
2023/07/13 17:24:44;;;;;;;;;;;;;;;;;;6325602;28;19954;-80
2023/07/13 17:27:48;;;;;;;;;;;;;;;;;;6328343;28;19932;-80
2023/07/13 17:30:50;;;;;;;;;;;;;;;;;;6327195;28;19916;-80
2023/07/13 17:33:51;;;;;;;;;;;;;;;;;;6307222;28;19927;-83
2023/07/13 17:36:52;;;;;;;;;;;;;;;;;;6325079;28;19924;-81
2023/07/13 17:39:54;;;;;;;;;;;;;;;;;;6326661;28;20127;-82
2023/07/13 17:42:55;;;;;;;;;;;;;;;;;;6324973;28;20023;-82
2023/07/13 17:45:56;;;;;;;;;;;;;;;;;;6328122;28;19924;-82
2023/07/13 17:48:57;;;;;;;;;;;;;;;;;;6323232;28;19924;-82
2023/07/13 17:51:59;;;;;;;;;;;;;;;;;;6325886;28;19916;-82
2023/07/13 17:55:02;;;;;;;;;;;;;;;;;;6324611;28;19928;-81
2023/07/13 17:58:03;;;;;;;;;;;;;;;;;;6318880;28;19998;-82
2023/07/13 18:01:06;;;;;;;;;;;;;;;;;;6303191;28;19983;-80
2023/07/13 18:04:08;;;;;;;;;;;;;;;;;;6300197;28;20086;-82
2023/07/13 18:07:17;;;;;;;;;;;;;;;;;;6301359;28;19917;-83
2023/07/13 18:10:18;;;;;;;;;;;;;;;;;;6299288;28;19991;-81
2023/07/13 18:13:20;;;;;;;;;;;;;;;;;;6301660;28;19916;-80
2023/07/13 18:16:23;;;;;;;;;;;;;;;;;;6300648;28;20010;-80
2023/07/13 18:19:24;;;;;;;;;;;;;;;;;;6301389;28;19916;-79
2023/07/13 18:22:25;;;;;;;;;;;;;;;;;;6306677;28;20043;-82
2023/07/13 18:25:27;;;;;;;;;;;;;;;;;;6305552;28;19916;-81
2023/07/13 18:28:29;;;;;;;;;;;;;;;;;;6303879;28;19991;-82
2023/07/13 18:31:32;;;;;;;;;;;;;;;;;;6305776;28;19916;-80
2023/07/13 18:34:33;;;;;;;;;;;;;;;;;;6305739;28;19916;-79
2023/07/13 18:37:34;;;;;;;;;;;;;;;;;;6304461;28;19924;-79
2023/07/13 18:40:35;;;;;;;;;;;;;;;;;;6302539;28;19930;-79
2023/07/13 18:43:37;;;;;;;;;;;;;;;;;;6304762;28;19917;-78
2023/07/13 18:46:38;;;;;;;;;;;;;;;;;;6306074;28;20435;-79
2023/07/13 18:49:39;;;;;;;;;;;;;;;;;;6305926;28;19928;-79
2023/07/13 18:52:41;;;;;;;;;;;;;;;;;;6306290;28;19928;-78
2023/07/13 18:55:43;;;;;;;;;;;;;;;;;;6304419;28;19924;-79
2023/07/13 18:58:45;;;;;;;;;;;;;;;;;;6302335;28;19923;-79
2023/07/13 19:01:47;;;;;;;;;;;;;;;;;;6303002;28;19948;-82
2023/07/13 19:04:49;;;;;;;;;;;;;;;;;;6304852;28;19943;-82
2023/07/13 19:07:50;;;;;;;;;;;;;;;;;;6301763;28;20003;-83
2023/07/13 19:10:52;;;;;;;;;;;;;;;;;;6298976;28;19930;-84
2023/07/13 19:13:54;;;;;;;;;;;;;;;;;;6304605;28;19943;-82
2023/07/13 19:16:57;;;;;;;;;;;;;;;;;;6302028;28;20188;-83
2023/07/13 19:19:58;;;;;;;;;;;;;;;;;;6306381;28;19995;-82
2023/07/13 19:22:59;;;;;;;;;;;;;;;;;;6304871;28;19943;-80
2023/07/13 19:26:00;;;;;;;;;;;;;;;;;;6304460;28;20189;-81
2023/07/13 19:29:02;;;;;;;;;;;;;;;;;;6303623;28;19924;-81
2023/07/13 19:32:05;;;;;;;;;;;;;;;;;;6303478;28;19924;-81
2023/07/13 19:35:06;;;;;;;;;;;;;;;;;;6304492;28;19928;-82
2023/07/13 19:38:07;;;;;;;;;;;;;;;;;;6304091;28;19922;-82
2023/07/13 19:41:10;;;;;;;;;;;;;;;;;;6305229;28;19932;-82
2023/07/13 19:44:12;;;;;;;;;;;;;;;;;;6304629;28;19931;-82
2023/07/13 19:47:16;;;;;;;;;;;;;;;;;;6303799;28;19923;-82
2023/07/13 19:50:17;;;;;;;;;;;;;;;;;;6298134;28;20250;-81
2023/07/13 19:53:20;;;;;;;;;;;;;;;;;;6300497;28;19987;-82
2023/07/13 19:56:22;;;;;;;;;;;;;;;;;;6303053;28;20019;-81